Time;durP1;ratioP1;P1;durP2;ratioP2;P2;SDS_P1;SDS_P2;PMS_P1;PMS_P2;Temp;Humidity;BMP_temperature;BMP_pressure;BME280_temperature;BME280_humidity;BME280_pressure;Samples;Min_cycle;Max_cycle;Signal;HPM_P1;HPM_P2
2023/05/11 02:00:22;;;;;;;8.35;3.03;;;;;;;;;;5004149;27;20214;-73
2023/05/11 02:02:53;;;;;;;5.85;2.42;;;;;;;;;;4307722;33;20048;-76
2023/05/11 02:05:21;;;;;;;4.68;2.28;;;;;;;;;;4293298;33;20045;-74
2023/05/11 02:07:49;;;;;;;5.85;2.40;;;;;;;;;;4294515;33;20042;-74
2023/05/11 02:10:16;;;;;;;4.78;2.22;;;;;;;;;;4294298;33;20037;-74
2023/05/11 02:12:43;;;;;;;9.27;2.30;;;;;;;;;;4292176;33;20535;-77
2023/05/11 02:15:10;;;;;;;6.32;2.53;;;;;;;;;;4293219;33;20106;-74
2023/05/11 02:17:38;;;;;;;5.93;2.55;;;;;;;;;;4294044;33;20049;-76
2023/05/11 02:20:05;;;;;;;2.85;2.10;;;;;;;;;;4293720;33;20190;-74
2023/05/11 02:22:32;;;;;;;5.03;3.25;;;;;;;;;;4249634;33;20368;-76
2023/05/11 02:24:58;;;;;;;4.03;2.70;;;;;;;;;;4249277;33;20030;-74
2023/05/11 02:27:24;;;;;;;6.22;2.37;;;;;;;;;;4243497;33;20460;-74
2023/05/11 02:29:51;;;;;;;3.87;2.53;;;;;;;;;;4248482;33;20796;-76
2023/05/11 02:32:19;;;;;;;6.70;2.40;;;;;;;;;;4253278;33;20042;-75
2023/05/11 02:34:53;;;;;;;3.40;2.05;;;;;;;;;;4251889;33;20026;-74
2023/05/11 02:37:22;;;;;;;3.65;2.65;;;;;;;;;;4266124;33;20061;-74
2023/05/11 02:39:51;;;;;;;4.15;2.55;;;;;;;;;;4267426;33;20082;-74
2023/05/11 02:42:19;;;;;;;4.30;1.92;;;;;;;;;;4266236;33;20063;-82
2023/05/11 02:44:55;;;;;;;9.95;2.62;;;;;;;;;;4240775;33;20054;-74
2023/05/11 02:47:21;;;;;;;7.37;2.33;;;;;;;;;;4239279;33;20035;-74
2023/05/11 02:49:52;;;;;;;5.62;2.60;;;;;;;;;;4239404;33;20050;-77
2023/05/11 02:52:22;;;;;;;7.40;2.28;;;;;;;;;;4237711;33;20085;-74
2023/05/11 02:54:50;;;;;;;7.35;2.12;;;;;;;;;;4293899;33;20560;-76
2023/05/11 02:57:17;;;;;;;9.38;2.37;;;;;;;;;;4295372;33;20392;-74
2023/05/11 02:59:44;;;;;;;4.70;1.87;;;;;;;;;;4296338;33;20078;-76
2023/05/11 03:02:11;;;;;;;6.22;2.17;;;;;;;;;;4294260;33;20386;-74
2023/05/11 03:04:39;;;;;;;17.75;2.17;;;;;;;;;;4294285;33;20083;-74
2023/05/11 03:07:06;;;;;;;5.75;2.15;;;;;;;;;;4295490;33;20045;-75
2023/05/11 03:09:33;;;;;;;6.82;2.53;;;;;;;;;;4295651;33;20112;-74
2023/05/11 03:12:01;;;;;;;6.87;2.50;;;;;;;;;;4296176;33;20126;-75
2023/05/11 03:14:30;;;;;;;13.60;2.33;;;;;;;;;;4279986;33;20073;-77
2023/05/11 03:16:57;;;;;;;3.55;2.00;;;;;;;;;;4279601;33;20268;-74
2023/05/11 03:19:25;;;;;;;4.90;1.98;;;;;;;;;;4280314;33;20067;-74
2023/05/11 03:21:51;;;;;;;5.82;2.20;;;;;;;;;;4281153;33;20053;-76
2023/05/11 03:24:18;;;;;;;5.15;2.28;;;;;;;;;;4281359;33;20050;-74
2023/05/11 03:26:44;;;;;;;3.42;2.10;;;;;;;;;;4254293;33;20042;-78
2023/05/11 03:29:12;;;;;;;3.53;1.98;;;;;;;;;;4228258;33;20051;-75
2023/05/11 03:31:38;;;;;;;8.88;2.40;;;;;;;;;;4224674;34;20080;-73
2023/05/11 03:34:04;;;;;;;7.97;3.30;;;;;;;;;;4248418;33;20045;-74
2023/05/11 03:36:32;;;;;;;7.43;2.33;;;;;;;;;;4251829;33;20849;-77
2023/05/11 03:39:00;;;;;;;7.18;2.10;;;;;;;;;;4251870;33;20763;-73
2023/05/11 03:41:30;;;;;;;10.25;2.25;;;;;;;;;;4253003;33;20568;-74
2023/05/11 03:43:58;;;;;;;9.85;2.70;;;;;;;;;;4252931;33;20050;-75
2023/05/11 03:46:25;;;;;;;2.97;2.40;;;;;;;;;;4225392;33;20050;-74
2023/05/11 03:48:51;;;;;;;13.62;2.42;;;;;;;;;;4231172;33;20050;-75
2023/05/11 03:51:19;;;;;;;3.53;1.95;;;;;;;;;;4238535;33;20089;-76
2023/05/11 03:53:45;;;;;;;3.25;2.00;;;;;;;;;;4237672;33;20488;-74
2023/05/11 03:56:11;;;;;;;5.82;2.60;;;;;;;;;;4237873;33;20080;-73
2023/05/11 03:58:38;;;;;;;7.43;2.65;;;;;;;;;;4238055;33;20047;-74
2023/05/11 04:01:05;;;;;;;7.43;2.42;;;;;;;;;;4259339;33;20080;-74
2023/05/11 04:03:32;;;;;;;3.33;2.33;;;;;;;;;;4266396;33;20041;-73
2023/05/11 04:05:58;;;;;;;8.70;2.20;;;;;;;;;;4295265;33;20626;-74
2023/05/11 04:08:24;;;;;;;7.55;2.17;;;;;;;;;;4294403;33;20049;-75
2023/05/11 04:10:50;;;;;;;7.45;2.75;;;;;;;;;;4281346;33;20045;-74
2023/05/11 04:13:16;;;;;;;5.43;2.55;;;;;;;;;;4277423;33;20428;-74
2023/05/11 04:15:42;;;;;;;5.18;2.22;;;;;;;;;;4280413;33;20216;-74
2023/05/11 04:18:09;;;;;;;4.80;1.90;;;;;;;;;;4279055;33;20136;-75
2023/05/11 04:20:36;;;;;;;5.43;2.65;;;;;;;;;;4280510;33;20065;-73
2023/05/11 04:23:02;;;;;;;4.53;2.15;;;;;;;;;;4280369;33;20079;-77
2023/05/11 04:25:30;;;;;;;8.07;2.50;;;;;;;;;;4278122;33;20071;-74
2023/05/11 04:27:56;;;;;;;7.65;2.20;;;;;;;;;;4276670;33;20113;-75
2023/05/11 04:30:22;;;;;;;14.07;2.37;;;;;;;;;;4287358;33;20057;-75
2023/05/11 04:32:48;;;;;;;3.60;1.58;;;;;;;;;;4279888;33;20100;-74
2023/05/11 04:35:15;;;;;;;8.55;2.53;;;;;;;;;;4276901;33;20078;-78
2023/05/11 04:37:41;;;;;;;12.88;2.37;;;;;;;;;;4299890;33;20045;-75
2023/05/11 04:40:08;;;;;;;4.28;1.92;;;;;;;;;;4304568;33;20090;-75
2023/05/11 04:42:35;;;;;;;3.65;2.60;;;;;;;;;;4307541;33;20037;-76
2023/05/11 04:45:03;;;;;;;5.30;2.12;;;;;;;;;;4293734;33;20079;-75
2023/05/11 04:47:29;;;;;;;3.87;2.08;;;;;;;;;;4304170;33;20092;-76
2023/05/11 04:49:56;;;;;;;9.93;2.53;;;;;;;;;;4305767;33;20057;-76
2023/05/11 04:52:22;;;;;;;4.68;2.28;;;;;;;;;;4308204;33;20095;-76
2023/05/11 04:54:48;;;;;;;5.97;1.90;;;;;;;;;;4307312;33;20519;-75
2023/05/11 04:57:15;;;;;;;5.50;2.22;;;;;;;;;;4309175;33;20753;-75
2023/05/11 04:59:41;;;;;;;16.75;2.45;;;;;;;;;;4305933;33;20057;-78
2023/05/11 05:02:07;;;;;;;4.25;1.98;;;;;;;;;;4280387;33;20053;-76
2023/05/11 05:04:34;;;;;;;10.43;2.20;;;;;;;;;;4276638;33;20415;-73
2023/05/11 05:07:00;;;;;;;3.72;2.20;;;;;;;;;;4278152;33;20051;-74
2023/05/11 05:09:26;;;;;;;5.03;2.40;;;;;;;;;;4271086;33;20049;-75
2023/05/11 05:11:52;;;;;;;12.02;2.85;;;;;;;;;;4276799;33;20064;-75
2023/05/11 05:14:19;;;;;;;3.22;2.08;;;;;;;;;;4242044;33;20097;-75
2023/05/11 05:16:45;;;;;;;5.32;2.15;;;;;;;;;;4247036;33;20031;-74
2023/05/11 05:19:12;;;;;;;15.02;2.97;;;;;;;;;;4244916;33;20062;-76
2023/05/11 05:21:39;;;;;;;4.45;2.08;;;;;;;;;;4246782;33;20068;-78
2023/05/11 05:24:09;;;;;;;1.65;1.55;;;;;;;;;;4246613;33;20376;-73
2023/05/11 05:26:35;;;;;;;8.65;2.10;;;;;;;;;;4241882;33;20420;-74
2023/05/11 05:29:04;;;;;;;4.93;2.10;;;;;;;;;;4239253;33;20055;-74
2023/05/11 05:31:30;;;;;;;4.45;2.78;;;;;;;;;;4255983;33;20066;-76
2023/05/11 05:34:03;;;;;;;6.53;2.22;;;;;;;;;;4259603;33;20045;-74
2023/05/11 05:36:30;;;;;;;5.82;2.67;;;;;;;;;;4239443;33;20093;-74
2023/05/11 05:38:57;;;;;;;2.47;1.87;;;;;;;;;;4243532;33;20023;-75
2023/05/11 05:41:24;;;;;;;7.20;2.05;;;;;;;;;;4250811;33;20474;-76
2023/05/11 05:43:50;;;;;;;5.40;2.25;;;;;;;;;;4249639;33;20034;-76
2023/05/11 05:46:17;;;;;;;11.02;2.55;;;;;;;;;;4239033;33;20056;-72
2023/05/11 05:48:43;;;;;;;6.62;1.90;;;;;;;;;;4237768;33;20134;-73
2023/05/11 05:51:16;;;;;;;9.90;2.70;;;;;;;;;;4230971;33;20141;-77
2023/05/11 05:53:42;;;;;;;9.20;2.78;;;;;;;;;;4237234;33;20056;-74
2023/05/11 05:56:09;;;;;;;5.20;1.92;;;;;;;;;;4250680;33;20141;-73
2023/05/11 05:58:35;;;;;;;11.85;1.73;;;;;;;;;;4249607;33;20064;-73
2023/05/11 06:01:02;;;;;;;11.12;2.70;;;;;;;;;;4250444;33;20075;-74
2023/05/11 06:03:28;;;;;;;6.78;1.98;;;;;;;;;;4227130;33;20088;-75
2023/05/11 06:05:56;;;;;;;9.40;2.08;;;;;;;;;;4213132;34;20051;-74
2023/05/11 06:08:22;;;;;;;3.05;1.73;;;;;;;;;;4235543;33;20034;-74
2023/05/11 06:10:49;;;;;;;2.20;1.87;;;;;;;;;;4239096;33;20089;-74
2023/05/11 06:13:15;;;;;;;8.18;2.83;;;;;;;;;;4239684;33;20050;-74
2023/05/11 06:15:42;;;;;;;22.65;3.20;;;;;;;;;;4237514;33;20056;-77
2023/05/11 06:18:09;;;;;;;2.60;1.77;;;;;;;;;;4238339;33;20065;-73
2023/05/11 06:20:35;;;;;;;8.95;1.90;;;;;;;;;;4246464;33;20042;-76
2023/05/11 06:23:03;;;;;;;10.00;2.85;;;;;;;;;;4243800;33;20049;-74
2023/05/11 06:25:32;;;;;;;7.30;1.60;;;;;;;;;;4254600;33;20085;-79
2023/05/11 06:27:58;;;;;;;7.53;1.98;;;;;;;;;;4258609;33;20108;-75
2023/05/11 06:30:25;;;;;;;10.55;1.60;;;;;;;;;;4262049;33;20073;-73
2023/05/11 06:32:51;;;;;;;13.55;2.00;;;;;;;;;;4265499;33;20075;-73
2023/05/11 06:35:18;;;;;;;7.90;2.37;;;;;;;;;;4278567;33;20067;-75
2023/05/11 06:37:45;;;;;;;5.95;2.25;;;;;;;;;;4270351;33;20056;-88
2023/05/11 06:40:14;;;;;;;3.28;1.95;;;;;;;;;;4276483;33;20079;-77
2023/05/11 06:42:41;;;;;;;10.88;1.92;;;;;;;;;;4280133;33;20088;-72
2023/05/11 06:45:08;;;;;;;7.18;1.95;;;;;;;;;;4282265;33;20088;-75
2023/05/11 06:47:35;;;;;;;4.03;2.05;;;;;;;;;;4281539;33;20075;-76
2023/05/11 06:50:02;;;;;;;4.93;1.83;;;;;;;;;;4281085;33;20375;-79
2023/05/11 06:52:28;;;;;;;9.75;1.55;;;;;;;;;;4281865;33;20640;-78
2023/05/11 06:54:55;;;;;;;5.65;2.55;;;;;;;;;;4281081;33;20058;-76
2023/05/11 06:57:21;;;;;;;7.57;2.08;;;;;;;;;;4281436;33;20057;-76
2023/05/11 06:59:47;;;;;;;3.33;2.45;;;;;;;;;;4281654;33;20064;-76
2023/05/11 07:02:14;;;;;;;4.93;1.58;;;;;;;;;;4305056;33;20495;-77
2023/05/11 07:04:40;;;;;;;3.05;1.92;;;;;;;;;;4310238;33;20052;-77
2023/05/11 07:07:06;;;;;;;4.07;1.83;;;;;;;;;;4279836;33;20034;-74
2023/05/11 07:09:33;;;;;;;7.53;2.72;;;;;;;;;;4280164;33;20070;-74
2023/05/11 07:11:58;;;;;;;4.18;1.73;;;;;;;;;;4264674;33;20352;-76
2023/05/11 07:14:25;;;;;;;2.85;2.20;;;;;;;;;;4264496;33;20080;-76
2023/05/11 07:16:51;;;;;;;13.00;1.55;;;;;;;;;;4265954;33;20075;-75
2023/05/11 07:19:17;;;;;;;2.65;1.67;;;;;;;;;;4266659;33;20421;-76
2023/05/11 07:21:43;;;;;;;3.47;1.52;;;;;;;;;;4266337;33;20052;-75
2023/05/11 07:24:10;;;;;;;11.63;2.10;;;;;;;;;;4266234;33;20083;-74
2023/05/11 07:26:36;;;;;;;6.78;1.80;;;;;;;;;;4265079;33;20361;-74
2023/05/11 07:29:02;;;;;;;5.37;1.75;;;;;;;;;;4265207;33;20045;-73
2023/05/11 07:31:28;;;;;;;12.02;2.60;;;;;;;;;;4251640;33;20053;-73
2023/05/11 07:33:55;;;;;;;6.10;1.55;;;;;;;;;;4252999;33;20054;-73
2023/05/11 07:36:21;;;;;;;7.95;1.92;;;;;;;;;;4252752;33;20045;-75
2023/05/11 07:38:47;;;;;;;9.20;1.95;;;;;;;;;;4260698;33;20108;-76
2023/05/11 07:41:13;;;;;;;6.45;1.95;;;;;;;;;;4263390;33;20030;-73
2023/05/11 07:43:40;;;;;;;5.78;2.60;;;;;;;;;;4265951;33;20062;-74
2023/05/11 07:46:06;;;;;;;11.95;3.37;;;;;;;;;;4267430;33;20476;-73
2023/05/11 07:48:33;;;;;;;6.95;1.55;;;;;;;;;;4278780;33;20057;-74
2023/05/11 07:51:00;;;;;;;2.75;1.70;;;;;;;;;;4278499;33;20029;-77
2023/05/11 07:53:26;;;;;;;4.68;2.20;;;;;;;;;;4279895;33;20987;-75
2023/05/11 07:55:52;;;;;;;8.15;2.37;;;;;;;;;;4280389;33;20046;-76
2023/05/11 07:58:18;;;;;;;7.72;1.70;;;;;;;;;;4279474;33;20721;-76
2023/05/11 08:00:44;;;;;;;5.47;1.75;;;;;;;;;;4279927;33;20473;-74
2023/05/11 08:03:11;;;;;;;16.75;2.15;;;;;;;;;;4301697;33;20045;-77
2023/05/11 08:05:37;;;;;;;3.03;1.87;;;;;;;;;;4307888;33;20037;-74
2023/05/11 08:08:04;;;;;;;4.18;2.15;;;;;;;;;;4303775;33;20064;-74
2023/05/11 08:10:30;;;;;;;4.57;1.77;;;;;;;;;;4305981;33;20350;-74
2023/05/11 08:12:57;;;;;;;2.95;2.00;;;;;;;;;;4310138;33;20064;-75
2023/05/11 08:15:23;;;;;;;9.95;1.95;;;;;;;;;;4309621;33;20079;-75
2023/05/11 08:17:49;;;;;;;3.33;1.67;;;;;;;;;;4311144;33;20078;-74
2023/05/11 08:20:15;;;;;;;2.90;2.08;;;;;;;;;;4311922;33;20040;-74
2023/05/11 08:22:43;;;;;;;4.03;2.15;;;;;;;;;;4310613;33;20390;-75
2023/05/11 08:25:09;;;;;;;5.80;1.85;;;;;;;;;;4311793;33;20093;-75
2023/05/11 08:27:35;;;;;;;5.82;1.87;;;;;;;;;;4309704;33;20368;-75
2023/05/11 08:30:01;;;;;;;5.97;2.35;;;;;;;;;;4311309;33;20114;-75
2023/05/11 08:32:28;;;;;;;4.87;1.60;;;;;;;;;;4311423;33;20036;-74
2023/05/11 08:34:54;;;;;;;10.52;1.77;;;;;;;;;;4311649;33;20067;-75
2023/05/11 08:37:21;;;;;;;5.95;1.90;;;;;;;;;;4311573;33;20052;-74
2023/05/11 08:39:47;;;;;;;3.35;1.75;;;;;;;;;;4308482;33;20029;-76
2023/05/11 08:42:16;;;;;;;6.75;1.70;;;;;;;;;;4311512;33;20359;-75
2023/05/11 08:44:43;;;;;;;2.50;1.75;;;;;;;;;;4311716;33;20427;-76
2023/05/11 08:47:10;;;;;;;3.40;1.60;;;;;;;;;;4311558;33;20079;-75
2023/05/11 08:49:36;;;;;;;3.42;2.00;;;;;;;;;;4278038;33;20383;-76
2023/05/11 08:52:04;;;;;;;11.20;2.58;;;;;;;;;;4268034;33;20063;-74
2023/05/11 08:54:31;;;;;;;16.50;1.90;;;;;;;;;;4278980;33;20065;-75
2023/05/11 08:56:57;;;;;;;7.05;1.70;;;;;;;;;;4280019;33;20482;-73
2023/05/11 08:59:25;;;;;;;10.10;2.10;;;;;;;;;;4279154;33;20033;-73
2023/05/11 09:01:53;;;;;;;4.12;1.90;;;;;;;;;;4276724;33;20071;-75
2023/05/11 09:04:20;;;;;;;7.15;2.15;;;;;;;;;;4279987;33;20259;-73
2023/05/11 09:06:47;;;;;;;3.08;1.83;;;;;;;;;;4280152;33;20452;-75
2023/05/11 09:09:15;;;;;;;1.92;1.80;;;;;;;;;;4279760;33;20051;-74
2023/05/11 09:11:41;;;;;;;5.07;2.03;;;;;;;;;;4279070;33;20057;-75
2023/05/11 09:14:07;;;;;;;4.35;2.50;;;;;;;;;;4248414;33;20207;-73
2023/05/11 09:16:34;;;;;;;5.00;2.62;;;;;;;;;;4250353;33;20075;-75
2023/05/11 09:19:03;;;;;;;8.20;1.98;;;;;;;;;;4250354;33;20030;-75
2023/05/11 09:21:30;;;;;;;3.28;2.50;;;;;;;;;;4251406;33;20054;-75
2023/05/11 09:23:58;;;;;;;6.18;1.60;;;;;;;;;;4237621;33;20484;-78
2023/05/11 09:26:25;;;;;;;3.65;1.50;;;;;;;;;;4236663;33;20088;-76
2023/05/11 09:28:52;;;;;;;7.28;1.83;;;;;;;;;;4235765;33;20038;-77
2023/05/11 09:31:37;;;;;;;4.20;1.90;;;;;;;;;;4236629;33;20043;-76
2023/05/11 09:34:21;;;;;;;6.28;2.08;;;;;;;;;;4222768;33;20137;-75
2023/05/11 09:36:55;;;;;;;2.97;2.10;;;;;;;;;;4222886;33;20062;-74
2023/05/11 09:39:28;;;;;;;3.22;1.87;;;;;;;;;;4221001;33;20047;-74
2023/05/11 09:42:14;;;;;;;10.23;2.58;;;;;;;;;;4223046;33;20038;-74
2023/05/11 09:44:40;;;;;;;35.25;18.00;;;;;;;;;;4222924;33;20035;-76
2023/05/11 09:47:14;;;;;;;7.78;2.25;;;;;;;;;;4217606;33;20050;-77
2023/05/11 09:49:43;;;;;;;6.85;2.80;;;;;;;;;;4193672;34;20044;-73
2023/05/11 09:52:10;;;;;;;6.37;3.65;;;;;;;;;;4223928;33;20054;-74
2023/05/11 09:54:41;;;;;;;7.25;4.57;;;;;;;;;;4244785;33;20080;-74
2023/05/11 09:57:20;;;;;;;9.43;3.17;;;;;;;;;;4262627;33;20449;-75
2023/05/11 09:59:47;;;;;;;2.45;2.10;;;;;;;;;;4265411;33;20064;-75
2023/05/11 10:02:22;;;;;;;12.60;2.35;;;;;;;;;;4264003;33;20049;-74
2023/05/11 10:04:52;;;;;;;1.98;1.80;;;;;;;;;;4274104;33;20059;-77
2023/05/11 10:07:24;;;;;;;3.37;1.92;;;;;;;;;;4294084;33;20045;-75
2023/05/11 10:09:54;;;;;;;2.10;1.62;;;;;;;;;;4293949;33;20128;-75
2023/05/11 10:12:22;;;;;;;2.12;1.80;;;;;;;;;;4292697;33;20053;-75
2023/05/11 10:14:50;;;;;;;4.57;1.85;;;;;;;;;;4291970;33;20058;-74
2023/05/11 10:17:17;;;;;;;5.62;1.95;;;;;;;;;;4294077;33;20086;-75
2023/05/11 10:19:43;;;;;;;2.30;1.70;;;;;;;;;;4294431;33;20068;-73
2023/05/11 10:22:10;;;;;;;4.05;2.08;;;;;;;;;;4296594;33;20110;-75
2023/05/11 10:24:36;;;;;;;9.65;2.20;;;;;;;;;;4296341;33;20071;-74
2023/05/11 10:27:03;;;;;;;8.88;1.58;;;;;;;;;;4290525;33;20179;-76
2023/05/11 10:29:30;;;;;;;3.47;1.85;;;;;;;;;;4280910;33;20107;-73
2023/05/11 10:31:57;;;;;;;2.35;1.65;;;;;;;;;;4270594;33;20200;-74
2023/05/11 10:34:23;;;;;;;2.25;1.77;;;;;;;;;;4271245;33;20037;-73
2023/05/11 10:36:50;;;;;;;4.20;1.83;;;;;;;;;;4270786;33;20091;-74
2023/05/11 10:39:17;;;;;;;4.35;1.77;;;;;;;;;;4268882;33;20042;-74
2023/05/11 10:41:47;;;;;;;3.47;1.90;;;;;;;;;;4274679;33;20089;-74
2023/05/11 10:44:12;;;;;;;4.03;1.60;;;;;;;;;;4279077;33;20040;-74
2023/05/11 10:46:39;;;;;;;9.77;2.20;;;;;;;;;;4268644;33;20103;-74
2023/05/11 10:49:14;;;;;;;8.80;2.20;;;;;;;;;;4270745;33;20816;-79
2023/05/11 10:51:59;;;;;;;2.65;1.87;;;;;;;;;;4276617;33;20295;-75
2023/05/11 10:54:26;;;;;;;2.97;1.60;;;;;;;;;;4279601;33;20021;-74
2023/05/11 10:57:11;;;;;;;3.85;1.60;;;;;;;;;;4286099;33;20083;-78
2023/05/11 10:59:56;;;;;;;7.87;2.42;;;;;;;;;;4296551;33;20499;-74
2023/05/11 11:02:29;;;;;;;5.82;1.70;;;;;;;;;;4457369;27;20087;-75
2023/05/11 11:04:57;;;;;;;4.37;1.60;;;;;;;;;;4295764;33;20045;-76
2023/05/11 11:07:24;;;;;;;9.05;2.05;;;;;;;;;;4295729;33;20106;-77
2023/05/11 11:09:50;;;;;;;5.22;1.73;;;;;;;;;;4290425;33;20488;-81
2023/05/11 11:12:16;;;;;;;5.30;1.40;;;;;;;;;;4295769;33;20106;-74
2023/05/11 11:15:03;;;;;;;13.73;1.75;;;;;;;;;;4297639;33;20243;-75
2023/05/11 11:17:33;;;;;;;13.05;2.00;;;;;;;;;;4297560;33;20071;-74
2023/05/11 11:20:01;;;;;;;3.70;2.15;;;;;;;;;;4295864;33;20033;-74
2023/05/11 11:22:33;;;;;;;7.00;1.85;;;;;;;;;;4297408;33;20079;-75
2023/05/11 11:24:59;;;;;;;1.77;1.67;;;;;;;;;;4295170;33;20036;-74
2023/05/11 11:27:38;;;;;;;8.02;2.12;;;;;;;;;;4293839;33;20078;-75
2023/05/11 11:30:24;;;;;;;3.83;1.85;;;;;;;;;;4288452;33;20038;-74
2023/05/11 11:32:52;;;;;;;2.00;1.90;;;;;;;;;;4297316;33;20100;-74
2023/05/11 11:35:44;;;;;;;3.28;2.45;;;;;;;;;;4296826;33;20070;-79
2023/05/11 11:38:18;;;;;;;6.93;1.85;;;;;;;;;;4289427;33;20042;-73
2023/05/11 11:40:45;;;;;;;3.17;1.80;;;;;;;;;;4295084;33;20074;-74
2023/05/11 11:43:19;;;;;;;4.90;2.40;;;;;;;;;;4294862;33;20473;-73
2023/05/11 11:45:58;;;;;;;3.75;1.60;;;;;;;;;;4297202;33;20049;-73
2023/05/11 11:48:35;;;;;;;7.55;2.22;;;;;;;;;;4288043;33;20049;-75
2023/05/11 11:51:09;;;;;;;6.82;1.85;;;;;;;;;;4290270;33;20026;-73
2023/05/11 11:53:39;;;;;;;2.22;1.80;;;;;;;;;;4294862;33;20065;-74
2023/05/11 11:56:14;;;;;;;7.50;2.10;;;;;;;;;;4294796;33;20491;-74
2023/05/11 11:58:41;;;;;;;2.87;1.70;;;;;;;;;;4292142;33;20088;-74
2023/05/11 12:01:13;;;;;;;7.10;1.80;;;;;;;;;;4294145;33;20055;-76
2023/05/11 12:03:40;;;;;;;8.98;2.17;;;;;;;;;;4249294;33;20580;-72
2023/05/11 12:06:07;;;;;;;6.20;1.85;;;;;;;;;;4250749;33;20064;-76
2023/05/11 12:08:35;;;;;;;6.20;2.22;;;;;;;;;;4249335;33;20064;-74
2023/05/11 12:11:02;;;;;;;2.45;1.90;;;;;;;;;;4251021;33;20734;-75
2023/05/11 12:13:28;;;;;;;4.85;1.92;;;;;;;;;;4249679;33;20160;-74
2023/05/11 12:16:11;;;;;;;9.20;2.03;;;;;;;;;;4250686;33;20060;-73
2023/05/11 12:18:38;;;;;;;3.25;2.15;;;;;;;;;;4250263;33;20849;-74
2023/05/11 12:21:04;;;;;;;3.05;2.17;;;;;;;;;;4248866;33;20026;-73
2023/05/11 12:23:31;;;;;;;4.90;1.87;;;;;;;;;;4235456;33;20184;-73
2023/05/11 12:26:03;;;;;;;5.82;1.95;;;;;;;;;;4236510;33;20050;-75
2023/05/11 12:28:29;;;;;;;2.05;1.90;;;;;;;;;;4234240;33;20385;-73
2023/05/11 12:30:56;;;;;;;7.28;1.80;;;;;;;;;;4236655;33;20058;-73
2023/05/11 12:33:22;;;;;;;2.50;1.98;;;;;;;;;;4235607;33;20046;-76
2023/05/11 12:35:52;;;;;;;3.53;1.90;;;;;;;;;;4272314;33;20029;-73
2023/05/11 12:38:18;;;;;;;3.05;2.30;;;;;;;;;;4269665;33;20061;-75
2023/05/11 12:40:51;;;;;;;4.32;1.98;;;;;;;;;;4256452;33;20052;-73
2023/05/11 12:43:18;;;;;;;2.95;1.48;;;;;;;;;;4256779;33;20109;-76
2023/05/11 12:45:45;;;;;;;3.42;1.55;;;;;;;;;;4256996;33;20055;-73
2023/05/11 12:48:11;;;;;;;3.87;2.45;;;;;;;;;;4256093;33;20586;-78
2023/05/11 12:50:40;;;;;;;5.28;1.77;;;;;;;;;;4252291;33;20054;-74
2023/05/11 12:53:14;;;;;;;9.75;2.08;;;;;;;;;;4279843;33;20053;-75
2023/05/11 12:55:40;;;;;;;6.05;2.70;;;;;;;;;;4276468;33;20085;-74
2023/05/11 12:58:07;;;;;;;14.35;2.35;;;;;;;;;;4276837;33;20067;-80
2023/05/11 13:00:34;;;;;;;5.15;1.77;;;;;;;;;;4276096;33;20100;-75
2023/05/11 13:03:01;;;;;;;15.82;1.77;;;;;;;;;;4277155;33;20119;-75
2023/05/11 13:05:28;;;;;;;2.50;1.50;;;;;;;;;;4276950;33;20056;-74
2023/05/11 13:07:58;;;;;;;7.20;3.20;;;;;;;;;;4276760;33;20749;-75
2023/05/11 13:10:27;;;;;;;5.68;1.70;;;;;;;;;;4261615;33;20092;-74
2023/05/11 13:12:53;;;;;;;9.85;2.22;;;;;;;;;;4247450;33;20110;-76
2023/05/11 13:15:21;;;;;;;2.15;1.70;;;;;;;;;;4253714;33;20575;-77
2023/05/11 13:17:53;;;;;;;2.08;1.98;;;;;;;;;;4248477;33;20377;-80
2023/05/11 13:20:22;;;;;;;11.07;2.50;;;;;;;;;;4250055;33;20862;-76
2023/05/11 13:22:49;;;;;;;2.22;2.03;;;;;;;;;;4253752;33;20047;-73
2023/05/11 13:25:16;;;;;;;6.50;1.80;;;;;;;;;;4246841;33;20487;-75
2023/05/11 13:27:43;;;;;;;5.20;2.22;;;;;;;;;;4253786;33;20064;-76
2023/05/11 13:30:10;;;;;;;5.55;2.30;;;;;;;;;;4254106;33;20031;-72
2023/05/11 13:32:36;;;;;;;9.93;2.37;;;;;;;;;;4269250;33;20091;-74
2023/05/11 13:35:03;;;;;;;7.90;2.08;;;;;;;;;;4274634;33;20051;-73
2023/05/11 13:37:29;;;;;;;6.95;2.20;;;;;;;;;;4279359;33;20398;-72
2023/05/11 13:39:55;;;;;;;2.25;2.00;;;;;;;;;;4273183;33;20387;-79
2023/05/11 13:42:22;;;;;;;8.35;1.75;;;;;;;;;;4286117;33;20048;-75
2023/05/11 13:44:48;;;;;;;3.55;2.17;;;;;;;;;;4288199;33;20037;-74
2023/05/11 13:47:15;;;;;;;10.35;1.83;;;;;;;;;;4292552;33;20075;-74
2023/05/11 13:49:42;;;;;;;2.78;1.75;;;;;;;;;;4290367;33;20470;-74
2023/05/11 13:52:09;;;;;;;15.70;2.05;;;;;;;;;;4289035;33;20074;-74
2023/05/11 13:54:35;;;;;;;7.95;2.25;;;;;;;;;;4293413;33;20053;-74
2023/05/11 13:57:02;;;;;;;4.87;2.40;;;;;;;;;;4292439;33;20044;-74
2023/05/11 13:59:28;;;;;;;6.87;2.35;;;;;;;;;;4292974;33;20033;-75
2023/05/11 14:01:54;;;;;;;6.70;2.12;;;;;;;;;;4292801;33;20472;-75
2023/05/11 14:04:20;;;;;;;8.15;2.15;;;;;;;;;;4254079;33;20061;-73
2023/05/11 14:06:46;;;;;;;9.02;1.60;;;;;;;;;;4249441;33;20468;-74
2023/05/11 14:09:12;;;;;;;1.92;1.60;;;;;;;;;;4252186;33;20110;-75
2023/05/11 14:11:39;;;;;;;13.52;1.62;;;;;;;;;;4253280;33;20042;-72
2023/05/11 14:14:05;;;;;;;3.35;1.52;;;;;;;;;;4258379;33;20059;-74
2023/05/11 14:16:31;;;;;;;6.03;2.00;;;;;;;;;;4256817;33;20058;-73
2023/05/11 14:18:57;;;;;;;4.55;2.10;;;;;;;;;;4251809;33;20072;-76
2023/05/11 14:21:23;;;;;;;7.43;1.70;;;;;;;;;;4238314;33;20072;-75
2023/05/11 14:23:50;;;;;;;7.22;1.90;;;;;;;;;;4199600;34;20047;-78
2023/05/11 14:26:22;;;;;;;4.00;1.87;;;;;;;;;;4197494;34;20058;-75
2023/05/11 14:28:48;;;;;;;3.22;2.08;;;;;;;;;;4197510;34;20040;-74
2023/05/11 14:31:14;;;;;;;7.40;2.25;;;;;;;;;;4197277;34;20052;-76
2023/05/11 14:33:40;;;;;;;5.10;1.80;;;;;;;;;;4187598;34;20122;-74
2023/05/11 14:36:07;;;;;;;3.85;1.58;;;;;;;;;;4181718;34;20072;-75
2023/05/11 14:38:33;;;;;;;16.45;2.05;;;;;;;;;;4180781;34;20533;-76
2023/05/11 14:41:00;;;;;;;3.72;2.40;;;;;;;;;;4187650;34;20078;-78
2023/05/11 14:43:27;;;;;;;2.92;1.80;;;;;;;;;;4212340;33;20441;-76
2023/05/11 14:45:53;;;;;;;3.90;2.20;;;;;;;;;;4211267;33;20068;-79
2023/05/11 14:48:20;;;;;;;2.97;1.90;;;;;;;;;;4214688;34;20036;-76
2023/05/11 14:50:47;;;;;;;6.00;1.98;;;;;;;;;;4195333;34;20063;-77
2023/05/11 14:53:13;;;;;;;2.78;1.62;;;;;;;;;;4239326;33;20081;-77
2023/05/11 14:55:39;;;;;;;8.55;2.20;;;;;;;;;;4273203;33;20057;-76
2023/05/11 14:58:08;;;;;;;3.97;1.60;;;;;;;;;;4252485;33;20039;-79
2023/05/11 15:00:38;;;;;;;4.40;1.87;;;;;;;;;;4255135;33;20202;-76
2023/05/11 15:03:06;;;;;;;3.25;1.90;;;;;;;;;;4264587;33;20467;-77
2023/05/11 15:05:33;;;;;;;2.53;1.62;;;;;;;;;;4264503;33;20037;-77
2023/05/11 15:07:59;;;;;;;3.83;2.00;;;;;;;;;;4275036;33;20063;-77
2023/05/11 15:10:25;;;;;;;12.68;2.55;;;;;;;;;;4260479;33;20521;-79
2023/05/11 15:12:51;;;;;;;9.52;1.77;;;;;;;;;;4262915;33;20478;-77
2023/05/11 15:15:17;;;;;;;7.75;1.75;;;;;;;;;;4262099;33;20042;-78
2023/05/11 15:17:43;;;;;;;5.97;1.90;;;;;;;;;;4258943;33;20779;-77
2023/05/11 15:20:10;;;;;;;6.30;1.95;;;;;;;;;;4254703;33;20038;-77
2023/05/11 15:22:36;;;;;;;9.50;2.22;;;;;;;;;;4256228;33;20063;-78
2023/05/11 15:25:03;;;;;;;6.78;2.55;;;;;;;;;;4255176;33;20145;-75
2023/05/11 15:27:29;;;;;;;5.60;1.90;;;;;;;;;;4253907;33;20037;-74
2023/05/11 15:29:55;;;;;;;14.15;2.10;;;;;;;;;;4283196;33;20067;-77
2023/05/11 15:32:21;;;;;;;4.32;1.70;;;;;;;;;;4289005;33;20063;-75
2023/05/11 15:34:54;;;;;;;3.75;2.10;;;;;;;;;;4274911;33;20041;-74
2023/05/11 15:37:20;;;;;;;5.05;1.90;;;;;;;;;;4273474;33;20068;-75
2023/05/11 15:39:47;;;;;;;17.12;2.55;;;;;;;;;;4271818;33;20050;-75
2023/05/11 15:42:13;;;;;;;6.32;2.30;;;;;;;;;;4267962;33;20052;-75
2023/05/11 15:44:39;;;;;;;4.70;2.40;;;;;;;;;;4266005;33;20053;-76
2023/05/11 15:47:07;;;;;;;4.87;2.25;;;;;;;;;;4264601;33;20072;-75
2023/05/11 15:49:33;;;;;;;10.40;2.10;;;;;;;;;;4266868;33;20064;-76
2023/05/11 15:51:59;;;;;;;17.48;2.50;;;;;;;;;;4279289;33;20038;-76
2023/05/11 15:54:26;;;;;;;8.73;3.03;;;;;;;;;;4279699;33;20457;-76
2023/05/11 15:56:52;;;;;;;11.75;2.58;;;;;;;;;;4281685;33;20553;-78
2023/05/11 15:59:19;;;;;;;2.10;1.62;;;;;;;;;;4281162;33;20045;-76
2023/05/11 16:01:45;;;;;;;2.97;2.08;;;;;;;;;;4284013;33;20086;-77
2023/05/11 16:04:12;;;;;;;4.60;1.83;;;;;;;;;;4290423;33;20036;-76
2023/05/11 16:06:37;;;;;;;6.62;2.00;;;;;;;;;;4304420;33;20044;-78
2023/05/11 16:09:04;;;;;;;11.90;2.33;;;;;;;;;;4299270;33;20061;-76
2023/05/11 16:11:30;;;;;;;8.48;2.37;;;;;;;;;;4307474;33;20048;-75
2023/05/11 16:13:56;;;;;;;9.60;2.62;;;;;;;;;;4304193;33;20337;-76
2023/05/11 16:16:23;;;;;;;5.07;1.83;;;;;;;;;;4303338;33;20049;-75
2023/05/11 16:18:50;;;;;;;5.25;2.17;;;;;;;;;;4301639;33;20451;-79
2023/05/11 16:21:16;;;;;;;3.22;2.00;;;;;;;;;;4301149;33;20662;-77
2023/05/11 16:23:42;;;;;;;5.35;2.00;;;;;;;;;;4307289;33;20114;-74
2023/05/11 16:26:08;;;;;;;8.65;2.33;;;;;;;;;;4297639;33;20033;-74
2023/05/11 16:28:35;;;;;;;7.20;1.92;;;;;;;;;;4302904;33;20057;-74
2023/05/11 16:31:01;;;;;;;5.72;2.17;;;;;;;;;;4275444;33;20084;-76
2023/05/11 16:33:27;;;;;;;3.37;1.62;;;;;;;;;;4276537;33;20040;-75
2023/05/11 16:35:53;;;;;;;6.47;2.20;;;;;;;;;;4279121;33;20843;-75
2023/05/11 16:38:20;;;;;;;17.62;2.30;;;;;;;;;;4280051;33;20049;-76
2023/05/11 16:40:49;;;;;;;5.15;2.17;;;;;;;;;;4280336;33;20055;-75
2023/05/11 16:43:15;;;;;;;1.98;1.62;;;;;;;;;;4278860;33;20177;-75